Time;durP1;ratioP1;P1;durP2;ratioP2;P2;SDS_P1;SDS_P2;PMS_P1;PMS_P2;Temp;Humidity;BMP_temperature;BMP_pressure;BME280_temperature;BME280_humidity;BME280_pressure;Samples;Min_cycle;Max_cycle;Signal;HPM_P1;HPM_P2
2023/06/04 04:00:22;;;;;;;5.90;1.87;;;8.30;97.30;;;;;;6003380;23;20411;31
2023/06/04 04:02:48;;;;;;;2.50;1.40;;;8.30;97.30;;;;;;4901077;29;20451;-85
2023/06/04 04:05:14;;;;;;;2.20;1.70;;;8.40;97.30;;;;;;4899896;29;20426;-86
2023/06/04 04:07:40;;;;;;;1.47;1.37;;;8.40;97.30;;;;;;4896938;29;20268;-85
2023/06/04 04:10:06;;;;;;;2.67;2.50;;;8.40;97.30;;;;;;4896437;29;20553;-86
2023/06/04 04:12:31;;;;;;;1.50;1.40;;;8.50;97.30;;;;;;4894689;29;20197;-84
2023/06/04 04:14:57;;;;;;;3.23;1.60;;;8.50;97.30;;;;;;4898929;29;20185;-85
2023/06/04 04:17:22;;;;;;;2.70;2.43;;;8.60;97.30;;;;;;4899885;29;20208;-88
2023/06/04 04:19:48;;;;;;;3.20;1.87;;;8.60;97.30;;;;;;4896088;29;20170;-85
2023/06/04 04:22:17;;;;;;;1.90;1.80;;;8.70;97.30;;;;;;4896318;29;20201;-86
2023/06/04 04:24:43;;;;;;;2.20;2.03;;;8.70;97.30;;;;;;4899230;29;20181;-84
2023/06/04 04:27:10;;;;;;;1.93;1.83;;;8.80;97.30;;;;;;4890777;29;20418;-86
2023/06/04 04:29:36;;;;;;;1.50;1.40;;;8.80;97.30;;;;;;4895024;29;20517;-85
2023/06/04 04:32:10;;;;;;;6.00;2.80;;;8.90;97.30;;;;;;4896248;29;20445;-85
2023/06/04 04:34:37;;;;;;;2.60;2.40;;;8.90;97.30;;;;;;4895267;29;20674;-87
2023/06/04 04:37:03;;;;;;;7.23;2.87;;;9.00;97.30;;;;;;4886932;29;20957;-86
2023/06/04 04:39:28;;;;;;;1.67;1.60;;;9.00;97.30;;;;;;4892731;29;20483;-86
2023/06/04 04:41:55;;;;;;;1.50;1.40;;;9.10;97.30;;;;;;4895470;29;20236;-86
2023/06/04 04:44:21;;;;;;;1.63;1.53;;;9.10;97.30;;;;;;4895351;29;20294;-86
2023/06/04 04:46:48;;;;;;;2.90;2.60;;;9.20;97.30;;;;;;4895072;29;20803;-86
2023/06/04 04:49:14;;;;;;;1.60;1.50;;;9.20;97.30;;;;;;4896546;29;20529;-84
2023/06/04 04:51:40;;;;;;;3.60;3.00;;;9.30;97.30;;;;;;4895412;29;20459;-85
2023/06/04 04:54:05;;;;;;;3.93;2.37;;;9.30;97.30;;;;;;4911080;29;20196;-86
2023/06/04 04:56:34;;;;;;;1.73;1.63;;;9.40;97.30;;;;;;4895319;29;20276;-86
2023/06/04 04:59:00;;;;;;;2.03;1.83;;;9.40;97.30;;;;;;4894908;29;20185;-84
2023/06/04 05:01:25;;;;;;;1.50;1.50;;;9.50;97.30;;;;;;4894752;29;20829;-86
2023/06/04 05:03:51;;;;;;;3.57;2.83;;;9.60;97.30;;;;;;4893563;29;20672;-86
2023/06/04 05:06:17;;;;;;;3.70;2.90;;;9.60;97.20;;;;;;4918635;29;20569;-86
2023/06/04 05:08:42;;;;;;;1.47;1.37;;;9.70;97.00;;;;;;4918666;29;20220;-86
2023/06/04 05:11:09;;;;;;;2.40;2.03;;;9.80;96.60;;;;;;4894944;29;20625;-85
2023/06/04 05:13:34;;;;;;;1.40;1.30;;;9.90;96.30;;;;;;4917602;29;20228;-86
2023/06/04 05:16:06;;;;;;;3.33;1.50;;;10.00;96.00;;;;;;4889441;29;20498;-85
2023/06/04 05:18:41;;;;;;;1.70;1.60;;;10.10;95.70;;;;;;4884562;29;20426;-85
2023/06/04 05:21:07;;;;;;;1.60;1.50;;;10.20;95.20;;;;;;4894846;29;20449;-85
2023/06/04 05:23:37;;;;;;;6.93;3.57;;;10.20;95.20;;;;;;4883394;29;20505;-85
2023/06/04 05:26:03;;;;;;;2.50;2.30;;;10.30;94.80;;;;;;4894686;29;20425;-88
2023/06/04 05:28:28;;;;;;;2.87;2.43;;;10.40;94.40;;;;;;4886873;29;20418;-86
2023/06/04 05:30:58;;;;;;;1.40;1.30;;;10.40;94.30;;;;;;4894347;29;20578;-86
2023/06/04 05:33:25;;;;;;;2.07;1.93;;;10.50;94.00;;;;;;4893868;29;20181;-86
2023/06/04 05:35:51;;;;;;;1.50;1.40;;;10.70;93.60;;;;;;4895556;29;20428;-84
2023/06/04 05:38:20;;;;;;;2.10;2.00;;;10.80;93.10;;;;;;4895527;29;20827;-86
2023/06/04 05:40:46;;;;;;;1.83;1.43;;;10.90;92.80;;;;;;4892300;29;20493;-86
2023/06/04 05:43:12;;;;;;;1.27;1.17;;;11.00;92.50;;;;;;4891133;29;20522;-83
2023/06/04 05:45:38;;;;;;;1.40;1.30;;;11.10;92.30;;;;;;4890649;29;20426;-87
2023/06/04 05:48:04;;;;;;;5.03;1.90;;;11.20;92.10;;;;;;4890238;29;20442;-86
2023/06/04 05:50:30;;;;;;;1.77;1.30;;;11.30;91.90;;;;;;4898820;29;20346;-86
2023/06/04 05:52:57;;;;;;;1.83;1.60;;;11.40;91.40;;;;;;4891327;29;20441;-86
2023/06/04 05:55:23;;;;;;;1.40;1.30;;;11.50;91.40;;;;;;4889320;29;20457;-86
2023/06/04 05:57:51;;;;;;;4.83;3.23;;;11.60;91.20;;;;;;4893715;29;20592;-86
2023/06/04 06:00:17;;;;;;;1.33;1.23;;;11.70;91.20;;;;;;4894990;29;20431;-86
2023/06/04 06:02:43;;;;;;;1.37;1.27;;;11.80;90.90;;;;;;4893107;29;21255;-86
2023/06/04 06:05:09;;;;;;;1.70;1.60;;;11.90;90.90;;;;;;4893153;29;20425;-87
2023/06/04 06:07:35;;;;;;;1.33;1.23;;;12.00;90.90;;;;;;4893209;29;20197;-86
2023/06/04 06:10:01;;;;;;;1.47;1.37;;;12.10;90.60;;;;;;4894406;29;20244;-86
2023/06/04 06:12:27;;;;;;;1.20;1.10;;;12.20;90.50;;;;;;4893329;29;20452;-87
2023/06/04 06:14:52;;;;;;;2.97;1.80;;;12.30;90.10;;;;;;4894542;29;20422;-86
2023/06/04 06:17:18;;;;;;;1.37;1.27;;;12.40;89.50;;;;;;4916706;29;20208;-86
2023/06/04 06:19:43;;;;;;;2.70;1.57;;;12.50;89.10;;;;;;4893919;29;20178;-86
2023/06/04 06:22:09;;;;;;;2.53;1.40;;;12.60;89.00;;;;;;4893169;29;20288;-86
2023/06/04 06:24:34;;;;;;;1.70;1.70;;;12.70;88.70;;;;;;4913607;29;20192;-86
2023/06/04 06:27:00;;;;;;;1.20;1.10;;;12.80;88.90;;;;;;4917917;29;20255;-86
2023/06/04 06:29:25;;;;;;;1.30;1.20;;;12.90;88.60;;;;;;4887414;29;20740;-86
2023/06/04 06:31:51;;;;;;;1.20;1.10;;;13.00;88.50;;;;;;4894250;29;20287;-85
2023/06/04 06:34:16;;;;;;;2.27;2.07;;;13.10;88.30;;;;;;4893288;29;20184;-86
2023/06/04 06:36:42;;;;;;;1.00;0.90;;;13.20;87.40;;;;;;4893328;29;20323;-88
2023/06/04 06:39:08;;;;;;;6.93;1.30;;;13.30;86.80;;;;;;4879942;29;20181;-86
2023/06/04 06:41:34;;;;;;;3.17;2.00;;;13.40;86.30;;;;;;4889574;29;20201;-86
2023/06/04 06:44:00;;;;;;;1.20;1.10;;;13.50;86.10;;;;;;4893493;29;20433;-86
2023/06/04 06:46:25;;;;;;;1.17;1.07;;;13.60;86.10;;;;;;4893535;29;20865;-86
2023/06/04 06:48:51;;;;;;;1.20;1.10;;;13.70;86.40;;;;;;4893157;29;20236;-88
2023/06/04 06:51:16;;;;;;;1.10;1.00;;;13.90;86.00;;;;;;4883158;29;20208;-86
2023/06/04 06:53:43;;;;;;;2.67;1.90;;;14.00;85.80;;;;;;4889343;29;20332;-86
2023/06/04 06:56:08;;;;;;;1.10;1.00;;;14.10;85.30;;;;;;4892948;29;20231;-88
2023/06/04 06:58:34;;;;;;;1.43;1.33;;;14.20;84.60;;;;;;4893320;29;20517;-86
2023/06/04 07:00:59;;;;;;;1.27;1.10;;;14.30;84.20;;;;;;4883911;29;20240;-87
2023/06/04 07:03:25;;;;;;;1.73;1.70;;;14.50;85.10;;;;;;4916423;29;20686;-87
2023/06/04 07:05:51;;;;;;;1.23;1.20;;;14.60;84.80;;;;;;4920027;29;20186;-83
2023/06/04 07:08:16;;;;;;;1.77;1.67;;;14.80;84.80;;;;;;4893890;29;20192;-86
2023/06/04 07:10:42;;;;;;;3.77;1.73;;;14.90;84.60;;;;;;4893036;29;20303;-86
2023/06/04 07:13:07;;;;;;;1.40;1.40;;;15.00;84.60;;;;;;4892542;29;20189;-86
2023/06/04 07:15:32;;;;;;;2.13;1.73;;;15.20;83.60;;;;;;4918104;29;20228;-86
2023/06/04 07:17:58;;;;;;;1.87;1.57;;;15.30;83.10;;;;;;4892833;29;20177;-87
2023/06/04 07:20:24;;;;;;;1.87;1.77;;;15.40;82.60;;;;;;4914407;29;20181;-87
2023/06/04 07:22:49;;;;;;;1.20;1.10;;;15.50;81.80;;;;;;4911533;29;20656;-85
2023/06/04 07:25:15;;;;;;;1.33;1.23;;;15.60;81.40;;;;;;4893208;29;20280;-87
2023/06/04 07:27:40;;;;;;;1.20;1.10;;;15.70;81.00;;;;;;4895975;29;20181;-87
2023/06/04 07:30:07;;;;;;;2.50;1.50;;;15.80;79.90;;;;;;4895242;29;20209;-86
2023/06/04 07:32:33;;;;;;;1.20;1.10;;;15.90;78.90;;;;;;4923071;29;20208;-87
2023/06/04 07:34:58;;;;;;;1.20;1.10;;;16.00;78.90;;;;;;4914316;29;20425;-87
2023/06/04 07:37:24;;;;;;;1.83;1.30;;;16.10;79.20;;;;;;4895785;29;20421;-83
2023/06/04 07:39:50;;;;;;;1.20;1.10;;;16.20;79.20;;;;;;4919897;29;20648;-85
2023/06/04 07:42:15;;;;;;;1.30;1.20;;;16.40;78.40;;;;;;4889145;29;20300;-83
2023/06/04 07:44:40;;;;;;;1.10;1.00;;;16.50;78.50;;;;;;4918600;29;20579;-85
2023/06/04 07:47:06;;;;;;;1.20;1.10;;;16.60;77.50;;;;;;4888799;29;20217;-86
2023/06/04 07:49:32;;;;;;;1.00;0.90;;;16.70;77.20;;;;;;4897238;29;20209;-85
2023/06/04 07:51:57;;;;;;;1.10;1.00;;;16.80;74.50;;;;;;4896515;29;20715;-85
2023/06/04 07:54:23;;;;;;;1.00;0.90;;;16.90;76.00;;;;;;4899241;29;20543;-86
2023/06/04 07:56:49;;;;;;;1.30;1.20;;;17.00;75.30;;;;;;4896839;29;20640;-85
2023/06/04 07:59:14;;;;;;;1.10;1.00;;;17.10;75.30;;;;;;4894643;29;20465;-85
2023/06/04 08:01:40;;;;;;;1.40;1.30;;;17.10;74.80;;;;;;4900503;29;20232;-83
2023/06/04 08:04:05;;;;;;;1.00;0.90;;;17.20;75.20;;;;;;4895618;29;20547;-85
2023/06/04 08:06:31;;;;;;;1.10;1.00;;;17.40;74.40;;;;;;4896566;29;20222;-85
2023/06/04 08:08:56;;;;;;;1.00;0.90;;;17.50;73.50;;;;;;4882869;29;20209;-86
2023/06/04 08:11:24;;;;;;;1.73;1.13;;;17.50;73.10;;;;;;4892760;29;20209;-83
2023/06/04 08:13:50;;;;;;;3.53;1.47;;;17.60;73.40;;;;;;4896325;29;20557;-84
2023/06/04 08:16:15;;;;;;;1.20;1.10;;;17.70;72.20;;;;;;4897389;29;20445;-85
2023/06/04 08:18:41;;;;;;;2.13;2.00;;;17.80;71.90;;;;;;4896065;29;20188;-85
2023/06/04 08:21:11;;;;;;;1.20;1.10;;;17.90;71.60;;;;;;4895577;29;20209;-83
2023/06/04 08:23:36;;;;;;;1.10;1.00;;;18.00;71.80;;;;;;4897331;29;20181;-85
2023/06/04 08:26:02;;;;;;;1.20;1.10;;;18.10;72.40;;;;;;4887814;29;20445;-85
2023/06/04 08:28:27;;;;;;;1.00;0.90;;;18.20;72.60;;;;;;4896258;29;20276;-84
2023/06/04 08:30:53;;;;;;;1.07;0.97;;;18.40;72.80;;;;;;4897177;29;20219;-85
2023/06/04 08:33:18;;;;;;;1.37;1.27;;;18.50;72.70;;;;;;4895267;29;20181;-85
2023/06/04 08:35:44;;;;;;;1.00;0.90;;;18.60;72.10;;;;;;4895112;29;20660;-84
2023/06/04 08:38:09;;;;;;;1.00;0.90;;;18.70;70.90;;;;;;4897073;29;20189;-86
2023/06/04 08:40:35;;;;;;;0.90;0.80;;;18.80;69.90;;;;;;4892940;29;20194;-86
2023/06/04 08:43:01;;;;;;;1.00;0.90;;;18.90;69.60;;;;;;4891943;29;20274;-85
2023/06/04 08:45:26;;;;;;;1.63;1.30;;;18.90;68.60;;;;;;4896150;29;20421;-86
2023/06/04 08:47:53;;;;;;;1.50;1.40;;;18.90;69.30;;;;;;4895129;29;20268;-83
2023/06/04 08:50:22;;;;;;;1.10;1.00;;;18.90;69.20;;;;;;4889213;29;20714;-84
2023/06/04 08:52:52;;;;;;;1.17;1.07;;;19.00;69.20;;;;;;4897153;29;20426;-83
2023/06/04 08:55:17;;;;;;;1.30;1.20;;;19.10;69.20;;;;;;4895883;29;20426;-85
2023/06/04 08:57:44;;;;;;;1.97;1.30;;;19.10;67.60;;;;;;4897808;29;20758;-82
2023/06/04 09:00:09;;;;;;;1.47;1.47;;;19.20;67.40;;;;;;4895481;29;20193;-83
2023/06/04 09:02:38;;;;;;;1.10;1.00;;;19.20;66.80;;;;;;4896064;29;20488;-82
2023/06/04 09:05:08;;;;;;;1.30;1.20;;;19.20;66.40;;;;;;4897162;29;20200;-84
2023/06/04 09:07:39;;;;;;;1.23;1.13;;;19.20;67.90;;;;;;4896921;29;20655;-85
2023/06/04 09:10:08;;;;;;;1.07;0.97;;;19.30;67.90;;;;;;4896604;29;20572;-86
2023/06/04 09:12:36;;;;;;;1.10;0.90;;;19.40;67.00;;;;;;4895455;29;20441;-83
2023/06/04 09:15:02;;;;;;;1.53;1.20;;;19.50;66.70;;;;;;4895314;29;20429;-86
2023/06/04 09:17:28;;;;;;;1.10;1.00;;;19.60;65.70;;;;;;4895522;29;20436;-86
2023/06/04 09:19:54;;;;;;;2.10;1.10;;;19.70;66.70;;;;;;4895549;29;20231;-85
2023/06/04 09:22:20;;;;;;;1.13;1.10;;;19.80;67.20;;;;;;4891758;29;21018;-83
2023/06/04 09:24:47;;;;;;;1.10;1.00;;;19.80;66.50;;;;;;4896107;29;20184;-88
2023/06/04 09:27:14;;;;;;;1.27;1.00;;;19.90;65.20;;;;;;4896037;29;20193;-85
2023/06/04 09:29:40;;;;;;;1.37;1.20;;;19.90;65.40;;;;;;4895448;29;20468;-86
2023/06/04 09:32:06;;;;;;;2.67;1.20;;;19.90;65.30;;;;;;4895011;29;20452;-85
2023/06/04 09:34:31;;;;;;;0.90;0.90;;;20.00;66.20;;;;;;4895122;29;20449;-86
2023/06/04 09:36:58;;;;;;;1.27;1.17;;;20.10;65.90;;;;;;4892663;29;20606;-85
2023/06/04 09:39:24;;;;;;;1.07;0.97;;;20.20;66.50;;;;;;4896029;29;20279;-84
2023/06/04 09:42:01;;;;;;;6.07;1.33;;;20.30;64.90;;;;;;4897536;29;20509;-84
2023/06/04 09:44:27;;;;;;;0.90;0.80;;;20.40;66.20;;;;;;4896112;29;20293;-87
2023/06/04 09:46:55;;;;;;;1.10;1.00;;;20.50;64.60;;;;;;4896437;29;20596;-83
2023/06/04 09:49:21;;;;;;;2.40;1.87;;;20.50;63.60;;;;;;4891819;29;20560;-86
2023/06/04 09:51:48;;;;;;;0.90;0.90;;;20.50;64.90;;;;;;4899339;29;20477;-85
2023/06/04 09:54:14;;;;;;;1.20;0.90;;;20.60;63.30;;;;;;4892036;29;20196;-83
2023/06/04 09:56:40;;;;;;;1.00;0.90;;;20.60;63.60;;;;;;4894633;29;20512;-83
2023/06/04 09:59:08;;;;;;;1.90;1.60;;;20.70;63.70;;;;;;4894370;29;20711;-86
2023/06/04 10:01:41;;;;;;;1.80;1.43;;;20.80;65.40;;;;;;4897185;29;20560;-88
2023/06/04 10:04:08;;;;;;;1.67;1.63;;;20.90;65.40;;;;;;4894411;29;20962;-84
2023/06/04 10:06:35;;;;;;;1.00;0.90;;;21.00;64.80;;;;;;4897789;29;20480;-86
2023/06/04 10:09:08;;;;;;;1.53;1.43;;;21.20;64.70;;;;;;4890998;29;20476;-85
2023/06/04 10:11:37;;;;;;;2.30;2.13;;;21.20;62.70;;;;;;4896429;29;20602;-86
2023/06/04 10:14:08;;;;;;;2.67;1.23;;;21.10;63.60;;;;;;4894435;29;20991;-86
2023/06/04 10:16:37;;;;;;;1.23;1.17;;;21.20;63.50;;;;;;4896631;29;20983;-85
2023/06/04 10:19:06;;;;;;;0.90;0.80;;;21.20;64.20;;;;;;4893235;29;20474;-85
2023/06/04 10:21:35;;;;;;;1.30;0.80;;;21.30;64.60;;;;;;4891596;29;20968;-84
2023/06/04 10:24:00;;;;;;;1.40;1.30;;;21.50;63.90;;;;;;4890368;29;20441;-86
2023/06/04 10:26:26;;;;;;;1.27;0.97;;;21.60;63.20;;;;;;4971603;23;20503;-87
2023/06/04 10:28:57;;;;;;;1.10;1.00;;;21.70;62.70;;;;;;4938318;29;20186;-89
2023/06/04 10:31:25;;;;;;;1.93;1.87;;;21.70;60.10;;;;;;4950553;29;20431;-88
2023/06/04 10:33:55;;;;;;;0.90;0.90;;;21.60;58.90;;;;;;4948565;29;20956;-87
2023/06/04 10:36:23;;;;;;;1.40;1.30;;;21.60;60.30;;;;;;4937792;29;20511;-89
2023/06/04 10:38:53;;;;;;;1.47;0.93;;;21.70;60.30;;;;;;4932295;29;20494;-87
2023/06/04 10:41:22;;;;;;;1.93;1.27;;;21.70;60.90;;;;;;4943046;29;20462;-90
2023/06/04 10:44:00;;;;;;;1.50;1.30;;;21.80;59.70;;;;;;4937431;29;20950;-90
2023/06/04 10:46:25;;;;;;;1.03;1.00;;;21.80;59.90;;;;;;4924404;29;20451;-88
2023/06/04 10:48:54;;;;;;;0.90;0.90;;;21.80;59.00;;;;;;4936975;29;20432;-87
2023/06/04 10:51:33;;;;;;;1.77;1.20;;;21.80;60.30;;;;;;4938529;29;20182;-87
2023/06/04 10:54:00;;;;;;;1.57;1.27;;;21.90;59.80;;;;;;4928288;29;20431;-89
2023/06/04 10:56:27;;;;;;;1.10;1.00;;;21.80;59.50;;;;;;4932461;29;20981;-89
2023/06/04 10:58:53;;;;;;;3.73;1.67;;;21.70;59.40;;;;;;4925781;29;20438;-88
2023/06/04 11:01:31;;;;;;;1.23;1.13;;;21.70;59.70;;;;;;4930177;29;20420;-88
2023/06/04 11:03:57;;;;;;;2.53;1.40;;;21.70;59.90;;;;;;4932640;29;20599;-89
2023/06/04 11:06:27;;;;;;;1.30;1.20;;;21.70;61.40;;;;;;4933995;29;20479;-89
2023/06/04 11:09:03;;;;;;;3.37;1.47;;;21.90;62.10;;;;;;4923482;29;20674;-89
2023/06/04 11:11:32;;;;;;;0.90;0.90;;;22.00;62.10;;;;;;4930476;29;20498;-89
2023/06/04 11:14:12;;;;;;;0.90;0.80;;;22.10;61.60;;;;;;4927797;29;20949;-87
2023/06/04 11:16:40;;;;;;;2.50;1.10;;;22.20;61.40;;;;;;4929535;29;20456;-89
2023/06/04 11:19:06;;;;;;;4.93;2.07;;;22.20;61.00;;;;;;4923582;29;20443;-89
2023/06/04 11:21:38;;;;;;;1.43;1.30;;;22.30;61.40;;;;;;4927228;29;20424;-87
2023/06/04 11:24:04;;;;;;;1.47;0.90;;;22.30;61.40;;;;;;4932044;29;20187;-90
2023/06/04 11:26:34;;;;;;;0.90;0.90;;;22.50;62.80;;;;;;4928482;29;20908;-87
2023/06/04 11:29:01;;;;;;;1.40;1.30;;;22.70;63.70;;;;;;4928472;29;20480;-90
2023/06/04 11:31:27;;;;;;;1.27;1.07;;;22.90;63.90;;;;;;4946075;28;20421;-90
2023/06/04 11:33:53;;;;;;;1.10;1.00;;;23.00;62.30;;;;;;4928788;29;20464;-85
2023/06/04 11:36:26;;;;;;;1.80;1.50;;;23.10;62.10;;;;;;4925718;29;20448;-87
2023/06/04 11:38:56;;;;;;;1.30;1.20;;;23.20;60.90;;;;;;4945694;28;20232;-88
2023/06/04 11:41:22;;;;;;;1.00;0.90;;;23.20;60.60;;;;;;4928992;29;20492;-87
2023/06/04 11:43:48;;;;;;;1.20;1.10;;;23.20;59.60;;;;;;4923001;29;20421;-87
2023/06/04 11:46:14;;;;;;;1.47;1.10;;;23.20;60.60;;;;;;4926878;29;20211;-87
2023/06/04 11:48:40;;;;;;;1.30;1.10;;;23.10;60.10;;;;;;4921596;29;20420;-85
2023/06/04 11:51:11;;;;;;;0.90;0.80;;;23.20;61.50;;;;;;4928471;29;20692;-85
2023/06/04 11:53:38;;;;;;;1.23;1.20;;;23.20;60.60;;;;;;4931977;29;20196;-86
2023/06/04 11:56:04;;;;;;;1.57;1.20;;;23.30;60.70;;;;;;4925418;29;20439;-89
2023/06/04 11:58:33;;;;;;;1.00;0.90;;;23.30;58.00;;;;;;4943006;28;20456;-88
2023/06/04 12:00:59;;;;;;;1.17;1.07;;;23.30;59.40;;;;;;4935703;29;20426;-85
2023/06/04 12:03:39;;;;;;;1.87;1.33;;;23.40;60.20;;;;;;4940519;29;20720;-86
2023/06/04 12:06:12;;;;;;;1.07;0.90;;;23.50;59.90;;;;;;4924650;29;20451;-84
2023/06/04 12:08:49;;;;;;;1.20;1.10;;;23.60;58.80;;;;;;4946951;28;20867;-86
2023/06/04 12:11:32;;;;;;;1.73;0.93;;;23.60;59.40;;;;;;4931852;29;20491;-88
2023/06/04 12:14:00;;;;;;;1.03;0.80;;;23.70;59.70;;;;;;4946629;29;20432;-90
2023/06/04 12:16:26;;;;;;;0.97;0.87;;;23.80;59.50;;;;;;4954139;28;20464;-90
2023/06/04 12:19:03;;;;;;;1.70;1.27;;;23.90;59.90;;;;;;4931212;29;20460;-86
2023/06/04 12:21:31;;;;;;;1.00;0.93;;;23.90;61.20;;;;;;4922418;29;20444;-87
2023/06/04 12:24:12;;;;;;;1.03;1.00;;;24.10;61.00;;;;;;4941390;28;20460;-89
2023/06/04 12:26:40;;;;;;;1.47;1.37;;;24.10;58.00;;;;;;4925876;29;20480;-86
2023/06/04 12:29:17;;;;;;;1.10;1.00;;;24.00;60.40;;;;;;4922129;29;20470;-89
2023/06/04 12:31:45;;;;;;;1.30;1.00;;;24.10;59.30;;;;;;4921878;29;20428;-86
2023/06/04 12:34:14;;;;;;;2.50;1.20;;;24.20;58.50;;;;;;4927152;29;20456;-84
2023/06/04 12:36:43;;;;;;;1.10;1.00;;;24.20;59.50;;;;;;4927162;29;20527;-89
2023/06/04 12:39:14;;;;;;;1.27;1.17;;;24.30;59.30;;;;;;4920514;29;20462;-86
2023/06/04 12:41:45;;;;;;;1.00;1.00;;;24.40;57.10;;;;;;4937980;28;20585;-85
2023/06/04 12:44:13;;;;;;;1.23;1.03;;;24.40;59.20;;;;;;4919700;29;20420;-86
2023/06/04 12:46:38;;;;;;;2.60;1.10;;;24.50;59.60;;;;;;4924272;29;20448;-85
2023/06/04 12:49:05;;;;;;;1.10;1.00;;;24.70;59.00;;;;;;4929930;29;20459;-89
2023/06/04 12:51:31;;;;;;;3.17;1.23;;;24.90;59.70;;;;;;4935451;29;20267;-89
2023/06/04 12:53:57;;;;;;;1.87;1.27;;;25.00;59.40;;;;;;4935674;29;20526;-85
2023/06/04 12:56:23;;;;;;;1.47;1.10;;;25.10;57.80;;;;;;4927285;29;20200;-86
2023/06/04 12:58:49;;;;;;;1.10;1.00;;;25.20;57.90;;;;;;4934195;29;20428;-89
2023/06/04 13:01:15;;;;;;;1.17;1.00;;;25.20;56.70;;;;;;4925475;29;20671;-86
2023/06/04 13:03:41;;;;;;;1.00;0.90;;;25.10;56.20;;;;;;4927200;29;20507;-86
2023/06/04 13:06:06;;;;;;;1.47;1.33;;;25.10;56.80;;;;;;4921470;29;20869;-89
2023/06/04 13:08:35;;;;;;;1.70;1.60;;;25.20;58.20;;;;;;4919538;29;20177;-89
2023/06/04 13:11:02;;;;;;;4.00;0.90;;;25.30;55.60;;;;;;4924882;29;20610;-89
2023/06/04 13:13:29;;;;;;;1.47;1.37;;;25.30;55.20;;;;;;4929886;29;20465;-89
2023/06/04 13:15:55;;;;;;;2.23;0.90;;;25.20;55.90;;;;;;4928939;29;20503;-87
2023/06/04 13:18:20;;;;;;;2.20;1.20;;;25.20;56.80;;;;;;4934290;29;20428;-88
2023/06/04 13:20:46;;;;;;;2.30;0.83;;;25.30;56.50;;;;;;4933702;29;20427;-89
2023/06/04 13:23:15;;;;;;;1.17;1.07;;;25.40;55.80;;;;;;4921260;28;20184;-86
2023/06/04 13:25:43;;;;;;;1.10;1.00;;;25.40;56.30;;;;;;4935046;28;20259;-89
2023/06/04 13:28:11;;;;;;;1.17;1.10;;;25.50;54.80;;;;;;4932262;29;20426;-89
2023/06/04 13:30:45;;;;;;;1.10;1.00;;;25.40;54.50;;;;;;4934382;29;21042;-86
2023/06/04 13:33:13;;;;;;;5.17;1.23;;;25.30;54.60;;;;;;4937305;29;20425;-85
2023/06/04 13:35:44;;;;;;;1.27;1.10;;;25.30;55.00;;;;;;4922508;29;20465;-88
2023/06/04 13:38:18;;;;;;;1.23;1.13;;;25.40;56.20;;;;;;4936138;29;20420;-89
2023/06/04 13:40:43;;;;;;;1.17;1.07;;;25.70;56.00;;;;;;4945434;28;20431;-86
2023/06/04 13:43:15;;;;;;;1.33;1.23;;;25.90;56.80;;;;;;4941516;29;20422;-88
2023/06/04 13:45:45;;;;;;;1.03;0.97;;;26.10;57.40;;;;;;4925687;29;20929;-87
2023/06/04 13:48:14;;;;;;;1.17;1.07;;;26.30;55.10;;;;;;4926726;29;20458;-87
2023/06/04 13:50:43;;;;;;;3.27;1.30;;;26.40;54.20;;;;;;4944680;28;20471;-89
2023/06/04 13:53:16;;;;;;;1.13;1.00;;;26.40;55.80;;;;;;4930756;29;20453;-86
2023/06/04 13:55:44;;;;;;;1.37;1.00;;;26.50;54.90;;;;;;4939973;29;20448;-86
2023/06/04 13:58:37;;;;;;;0.70;0.70;;;26.50;54.20;;;;;;4915750;29;20439;-85
2023/06/04 14:01:03;;;;;;;1.40;1.10;;;26.40;54.90;;;;;;4929550;29;20436;-88
2023/06/04 14:03:33;;;;;;;1.00;0.90;;;26.50;54.80;;;;;;4928556;29;20432;-85
2023/06/04 14:06:07;;;;;;;1.77;1.30;;;26.60;54.60;;;;;;4928683;29;20491;-91
2023/06/04 14:08:35;;;;;;;0.70;0.70;;;26.60;53.70;;;;;;4938928;29;20487;-89
2023/06/04 14:11:02;;;;;;;1.20;1.20;;;26.60;55.30;;;;;;4928151;29;20463;-89
2023/06/04 14:13:30;;;;;;;2.20;1.10;;;26.60;54.50;;;;;;4925499;29;20436;-90
2023/06/04 14:15:56;;;;;;;1.50;1.00;;;26.60;54.70;;;;;;4914492;29;20437;-86
2023/06/04 14:18:23;;;;;;;1.20;0.90;;;26.70;54.20;;;;;;4931303;29;20420;-89
2023/06/04 14:20:51;;;;;;;2.20;1.40;;;26.70;54.90;;;;;;4917136;29;20203;-90
2023/06/04 14:23:18;;;;;;;3.13;1.00;;;26.90;54.20;;;;;;4925756;29;20466;-88
2023/06/04 14:25:43;;;;;;;0.90;0.80;;;27.00;54.90;;;;;;4923553;29;20487;-86
2023/06/04 14:28:09;;;;;;;1.13;1.03;;;27.10;54.50;;;;;;4921918;29;20433;-90
2023/06/04 14:30:35;;;;;;;1.40;1.30;;;27.20;54.30;;;;;;4921706;29;20704;-87
2023/06/04 14:33:00;;;;;;;1.20;1.10;;;27.40;54.40;;;;;;4917204;29;20398;-83
2023/06/04 14:35:25;;;;;;;0.90;0.80;;;27.40;54.10;;;;;;4927491;29;20204;-87
2023/06/04 14:37:53;;;;;;;0.90;0.80;;;27.40;54.50;;;;;;4928446;29;20277;-88
2023/06/04 14:40:21;;;;;;;0.90;0.90;;;27.40;53.80;;;;;;4929418;29;20358;-86
2023/06/04 14:42:47;;;;;;;1.00;0.90;;;27.40;53.70;;;;;;4936827;28;20435;-86
2023/06/04 14:45:12;;;;;;;0.77;0.77;;;27.40;52.50;;;;;;4924478;29;20466;-87
2023/06/04 14:47:38;;;;;;;1.23;1.13;;;27.20;53.00;;;;;;4921537;29;20216;-83
2023/06/04 14:50:04;;;;;;;1.20;1.20;;;27.20;53.80;;;;;;4927812;29;20235;-83
2023/06/04 14:52:32;;;;;;;1.03;1.00;;;27.30;54.40;;;;;;4925444;28;20235;-82
2023/06/04 14:54:57;;;;;;;1.83;1.20;;;27.40;55.00;;;;;;4943414;28;20439;-86
2023/06/04 14:57:23;;;;;;;3.10;1.13;;;27.50;53.10;;;;;;4925999;29;20412;-82
2023/06/04 14:59:48;;;;;;;1.57;1.23;;;27.50;52.50;;;;;;4944747;28;20722;-84
2023/06/04 15:02:19;;;;;;;1.20;1.10;;;27.60;52.60;;;;;;4927167;29;20216;-83
2023/06/04 15:04:45;;;;;;;0.80;0.77;;;27.70;52.50;;;;;;4925837;29;20231;-82
2023/06/04 15:07:10;;;;;;;1.70;1.47;;;27.70;52.80;;;;;;4924094;29;20436;-84
2023/06/04 15:09:36;;;;;;;1.27;1.10;;;27.80;54.10;;;;;;4936645;29;20490;-86
2023/06/04 15:12:04;;;;;;;1.10;1.00;;;28.00;53.90;;;;;;4922054;29;20180;-88
2023/06/04 15:14:32;;;;;;;1.57;1.23;;;27.90;52.60;;;;;;4930423;29;20274;-87
2023/06/04 15:16:57;;;;;;;0.90;0.80;;;27.80;51.70;;;;;;4931538;29;20421;-83
2023/06/04 15:19:23;;;;;;;1.60;1.50;;;27.60;51.90;;;;;;4932043;29;20519;-86
2023/06/04 15:21:51;;;;;;;0.80;0.70;;;27.40;51.70;;;;;;4926898;29;20185;-84
2023/06/04 15:24:16;;;;;;;3.70;1.00;;;27.40;52.20;;;;;;4931573;29;20215;-84
2023/06/04 15:26:44;;;;;;;1.40;1.30;;;27.40;53.60;;;;;;4945885;28;20488;-86
2023/06/04 15:29:09;;;;;;;1.63;1.10;;;27.50;52.90;;;;;;4926478;29;20211;-83
2023/06/04 15:31:35;;;;;;;1.37;1.27;;;27.50;52.70;;;;;;4932291;29;21060;-82
2023/06/04 15:34:00;;;;;;;1.43;1.03;;;27.70;52.80;;;;;;4930189;29;20200;-83
2023/06/04 15:36:26;;;;;;;2.00;1.03;;;27.80;52.90;;;;;;4923233;29;20474;-88
2023/06/04 15:38:51;;;;;;;1.40;1.30;;;27.80;53.20;;;;;;4917332;29;20185;-87
2023/06/04 15:41:17;;;;;;;0.90;0.80;;;27.70;52.10;;;;;;4915934;29;20181;-88
2023/06/04 15:43:43;;;;;;;1.10;1.00;;;27.60;52.50;;;;;;4921268;29;20179;-85
2023/06/04 15:46:08;;;;;;;1.07;0.97;;;27.40;52.20;;;;;;4940438;29;20789;-85
2023/06/04 15:48:34;;;;;;;0.93;0.90;;;27.40;53.60;;;;;;4925326;29;20235;-85
2023/06/04 15:50:59;;;;;;;0.80;0.70;;;27.40;53.50;;;;;;4926408;29;20204;-85
2023/06/04 15:53:25;;;;;;;1.30;1.20;;;27.50;54.30;;;;;;4941481;28;20413;-84
2023/06/04 15:55:50;;;;;;;1.80;1.30;;;27.60;54.10;;;;;;4938324;28;20287;-84
2023/06/04 15:58:16;;;;;;;1.13;1.03;;;27.70;54.00;;;;;;4933558;29;20187;-87
2023/06/04 16:00:42;;;;;;;1.37;1.27;;;27.70;53.10;;;;;;4933056;29;20334;-85
2023/06/04 16:03:07;;;;;;;2.23;1.00;;;27.70;53.10;;;;;;4922530;29;20188;-87
2023/06/04 16:05:36;;;;;;;1.20;1.10;;;27.70;52.90;;;;;;4928895;29;20210;-87
2023/06/04 16:08:03;;;;;;;1.03;1.00;;;27.60;51.90;;;;;;4925493;29;20180;-84
2023/06/04 16:10:31;;;;;;;1.03;1.00;;;27.40;52.30;;;;;;4926839;29;20490;-85
2023/06/04 16:12:57;;;;;;;1.93;1.57;;;27.30;52.40;;;;;;4920377;29;20741;-89
2023/06/04 16:15:24;;;;;;;1.70;1.67;;;27.30;52.30;;;;;;4928997;29;20440;-85
2023/06/04 16:17:50;;;;;;;1.10;0.93;;;27.20;52.00;;;;;;4930568;29;20184;-85
2023/06/04 16:20:16;;;;;;;4.30;1.33;;;27.20;53.00;;;;;;4934848;29;20441;-86
2023/06/04 16:22:41;;;;;;;1.00;0.90;;;27.20;52.30;;;;;;4930427;29;20227;-87
2023/06/04 16:25:07;;;;;;;1.10;1.00;;;27.30;53.10;;;;;;4952179;23;20238;-86
2023/06/04 16:27:33;;;;;;;0.90;0.80;;;27.20;52.80;;;;;;4951430;29;20190;-84
2023/06/04 16:29:58;;;;;;;0.93;0.83;;;27.10;51.90;;;;;;4955401;28;20459;-84
2023/06/04 16:32:24;;;;;;;1.13;1.03;;;27.10;52.20;;;;;;4961366;28;20226;-82
2023/06/04 16:34:50;;;;;;;1.80;1.40;;;27.10;53.00;;;;;;4953654;28;20552;-85
2023/06/04 16:37:15;;;;;;;1.40;1.30;;;27.00;52.90;;;;;;4960749;28;20191;-86
2023/06/04 16:39:41;;;;;;;1.30;1.20;;;26.90;52.90;;;;;;4953640;29;20273;-85
2023/06/04 16:42:07;;;;;;;1.20;0.93;;;26.80;54.00;;;;;;4954025;29;20192;-85
2023/06/04 16:44:33;;;;;;;1.37;1.17;;;26.70;53.40;;;;;;4963039;28;20270;-85
2023/06/04 16:46:58;;;;;;;1.53;1.10;;;26.60;54.20;;;;;;4968146;28;20540;-83